sensor_id;sensor_type;location;lat;lon;timestamp;pressure;altitude;pressure_sealevel;temperature;humidity
25722;BME280;13578;53.450;15.496;2023-03-21T00:00:40;99615.94;;;6.12;100.00
25722;BME280;13578;53.450;15.496;2023-03-21T00:03:41;99620.63;;;6.10;100.00
25722;BME280;13578;53.450;15.496;2023-03-21T00:06:42;99617.16;;;6.08;100.00
25722;BME280;13578;53.450;15.496;2023-03-21T00:09:43;99608.56;;;6.01;100.00
25722;BME280;13578;53.450;15.496;2023-03-21T00:12:43;99605.38;;;6.08;100.00
25722;BME280;13578;53.450;15.496;2023-03-21T00:15:44;99598.63;;;6.00;100.00
25722;BME280;13578;53.450;15.496;2023-03-21T00:18:53;99600.16;;;6.04;100.00
25722;BME280;13578;53.450;15.496;2023-03-21T00:21:54;99609.53;;;6.00;100.00
25722;BME280;13578;53.450;15.496;2023-03-21T00:24:55;99597.31;;;6.06;100.00
25722;BME280;13578;53.450;15.496;2023-03-21T00:27:55;99595.69;;;6.03;100.00
25722;BME280;13578;53.450;15.496;2023-03-21T00:30:59;99607.13;;;6.09;100.00
25722;BME280;13578;53.450;15.496;2023-03-21T00:34:00;99600.38;;;6.01;100.00
25722;BME280;13578;53.450;15.496;2023-03-21T00:37:01;99592.09;;;6.03;100.00
25722;BME280;13578;53.450;15.496;2023-03-21T00:40:02;99595.91;;;6.00;100.00
25722;BME280;13578;53.450;15.496;2023-03-21T00:43:09;99592.34;;;6.00;100.00
25722;BME280;13578;53.450;15.496;2023-03-21T00:46:11;99593.09;;;6.02;100.00
25722;BME280;13578;53.450;15.496;2023-03-21T00:49:12;99606.47;;;6.05;100.00
25722;BME280;13578;53.450;15.496;2023-03-21T00:52:12;99606.72;;;6.02;100.00
25722;BME280;13578;53.450;15.496;2023-03-21T00:55:14;99600.69;;;5.97;100.00
25722;BME280;13578;53.450;15.496;2023-03-21T00:58:16;99609.19;;;6.05;100.00
25722;BME280;13578;53.450;15.496;2023-03-21T01:01:17;99611.28;;;6.01;100.00
25722;BME280;13578;53.450;15.496;2023-03-21T01:04:18;99603.31;;;5.98;100.00
25722;BME280;13578;53.450;15.496;2023-03-21T01:07:19;99614.53;;;6.07;100.00
25722;BME280;13578;53.450;15.496;2023-03-21T01:10:20;99609.19;;;6.05;100.00
25722;BME280;13578;53.450;15.496;2023-03-21T01:13:24;99601.91;;;6.06;100.00
25722;BME280;13578;53.450;15.496;2023-03-21T01:16:25;99600.03;;;6.06;100.00
25722;BME280;13578;53.450;15.496;2023-03-21T01:19:26;99606.91;;;6.12;100.00
25722;BME280;13578;53.450;15.496;2023-03-21T01:22:27;99608.84;;;5.97;100.00
25722;BME280;13578;53.450;15.496;2023-03-21T01:25:28;99604.28;;;5.97;100.00
25722;BME280;13578;53.450;15.496;2023-03-21T01:28:29;99604.25;;;6.10;100.00
25722;BME280;13578;53.450;15.496;2023-03-21T01:31:30;99600.91;;;6.07;100.00
25722;BME280;13578;53.450;15.496;2023-03-21T01:34:30;99603.75;;;6.05;100.00
25722;BME280;13578;53.450;15.496;2023-03-21T01:37:31;99593.81;;;6.04;100.00
25722;BME280;13578;53.450;15.496;2023-03-21T01:40:32;99600.25;;;6.03;100.00
25722;BME280;13578;53.450;15.496;2023-03-21T01:43:34;99600.25;;;6.03;100.00
25722;BME280;13578;53.450;15.496;2023-03-21T01:46:41;99608.72;;;6.11;100.00
25722;BME280;13578;53.450;15.496;2023-03-21T01:49:46;99599.06;;;6.07;100.00
25722;BME280;13578;53.450;15.496;2023-03-21T01:52:49;99608.00;;;6.09;100.00
25722;BME280;13578;53.450;15.496;2023-03-21T01:55:49;99606.25;;;6.08;100.00
25722;BME280;13578;53.450;15.496;2023-03-21T01:58:52;99598.75;;;5.99;100.00
25722;BME280;13578;53.450;15.496;2023-03-21T02:02:00;99604.97;;;6.01;100.00
25722;BME280;13578;53.450;15.496;2023-03-21T02:05:06;99605.41;;;5.95;100.00
25722;BME280;13578;53.450;15.496;2023-03-21T02:08:07;99595.81;;;6.02;100.00
25722;BME280;13578;53.450;15.496;2023-03-21T02:11:08;99604.09;;;6.00;100.00
25722;BME280;13578;53.450;15.496;2023-03-21T02:14:14;99598.75;;;5.99;100.00
25722;BME280;13578;53.450;15.496;2023-03-21T02:21:04;99595.47;;;5.94;100.00
25722;BME280;13578;53.450;15.496;2023-03-21T02:28:13;99604.72;;;6.04;100.00
25722;BME280;13578;53.450;15.496;2023-03-21T02:41:54;99596.47;;;5.93;100.00
25722;BME280;13578;53.450;15.496;2023-03-21T02:48:08;99592.50;;;5.97;100.00
25722;BME280;13578;53.450;15.496;2023-03-21T02:51:14;99601.47;;;5.99;100.00
25722;BME280;13578;53.450;15.496;2023-03-21T02:54:18;99607.78;;;5.99;100.00
25722;BME280;13578;53.450;15.496;2023-03-21T02:57:21;99604.50;;;5.94;100.00
25722;BME280;13578;53.450;15.496;2023-03-21T03:00:26;99600.63;;;5.85;100.00
25722;BME280;13578;53.450;15.496;2023-03-21T03:03:27;99608.00;;;5.96;100.00
25722;BME280;13578;53.450;15.496;2023-03-21T03:06:39;99604.50;;;5.94;100.00
25722;BME280;13578;53.450;15.496;2023-03-21T03:17:04;99608.34;;;5.92;100.00
25722;BME280;13578;53.450;15.496;2023-03-21T03:20:29;99606.13;;;5.97;100.00
25722;BME280;13578;53.450;15.496;2023-03-21T03:27:30;99615.63;;;6.04;100.00
25722;BME280;13578;53.450;15.496;2023-03-21T03:30:33;99611.06;;;5.92;100.00
25722;BME280;13578;53.450;15.496;2023-03-21T03:33:38;99610.94;;;5.93;100.00
25722;BME280;13578;53.450;15.496;2023-03-21T03:36:46;99615.09;;;5.99;100.00
25722;BME280;13578;53.450;15.496;2023-03-21T03:39:56;99614.66;;;6.05;100.00
25722;BME280;13578;53.450;15.496;2023-03-21T03:43:04;99616.94;;;5.98;100.00
25722;BME280;13578;53.450;15.496;2023-03-21T03:46:43;99618.91;;;6.09;100.00
25722;BME280;13578;53.450;15.496;2023-03-21T03:50:02;99623.34;;;6.10;100.00
25722;BME280;13578;53.450;15.496;2023-03-21T03:53:36;99622.94;;;6.03;100.00
25722;BME280;13578;53.450;15.496;2023-03-21T03:56:39;99625.41;;;6.07;100.00
25722;BME280;13578;53.450;15.496;2023-03-21T03:59:42;99626.78;;;6.01;100.00
25722;BME280;13578;53.450;15.496;2023-03-21T04:02:43;99626.53;;;6.04;100.00
25722;BME280;13578;53.450;15.496;2023-03-21T04:05:45;99622.69;;;6.07;100.00
25722;BME280;13578;53.450;15.496;2023-03-21T04:08:46;99618.59;;;6.01;100.00
25722;BME280;13578;53.450;15.496;2023-03-21T04:11:47;99620.97;;;6.06;100.00
25722;BME280;13578;53.450;15.496;2023-03-21T04:14:47;99624.03;;;6.01;100.00
25722;BME280;13578;53.450;15.496;2023-03-21T04:17:48;99620.44;;;6.00;100.00
25722;BME280;13578;53.450;15.496;2023-03-21T04:20:49;99628.72;;;5.99;100.00
25722;BME280;13578;53.450;15.496;2023-03-21T04:23:50;99624.22;;;5.98;100.00
25722;BME280;13578;53.450;15.496;2023-03-21T04:26:54;99626.00;;;5.99;100.00
25722;BME280;13578;53.450;15.496;2023-03-21T04:29:54;99631.97;;;6.04;100.00
25722;BME280;13578;53.450;15.496;2023-03-21T04:32:55;99619.22;;;5.92;100.00
25722;BME280;13578;53.450;15.496;2023-03-21T04:35:56;99629.78;;;5.96;100.00
25722;BME280;13578;53.450;15.496;2023-03-21T04:38:58;99619.56;;;6.00;100.00
25722;BME280;13578;53.450;15.496;2023-03-21T04:42:00;99632.63;;;6.08;100.00
25722;BME280;13578;53.450;15.496;2023-03-21T04:45:01;99633.72;;;6.05;100.00
25722;BME280;13578;53.450;15.496;2023-03-21T04:48:02;99639.06;;;5.94;100.00
25722;BME280;13578;53.450;15.496;2023-03-21T04:51:03;99633.50;;;5.95;100.00
25722;BME280;13578;53.450;15.496;2023-03-21T04:54:04;99638.63;;;6.00;100.00
25722;BME280;13578;53.450;15.496;2023-03-21T04:57:06;99632.84;;;6.04;100.00
25722;BME280;13578;53.450;15.496;2023-03-21T05:00:08;99637.06;;;5.96;100.00
25722;BME280;13578;53.450;15.496;2023-03-21T05:03:09;99642.22;;;5.87;100.00
25722;BME280;13578;53.450;15.496;2023-03-21T05:06:10;99630.00;;;5.93;100.00
25722;BME280;13578;53.450;15.496;2023-03-21T05:09:12;99631.97;;;5.91;100.00
25722;BME280;13578;53.450;15.496;2023-03-21T05:12:12;99633.50;;;5.95;100.00
25722;BME280;13578;53.450;15.496;2023-03-21T05:15:13;99628.81;;;5.97;100.00
25722;BME280;13578;53.450;15.496;2023-03-21T05:18:14;99636.09;;;5.97;100.00
25722;BME280;13578;53.450;15.496;2023-03-21T05:21:14;99638.81;;;5.97;100.00
25722;BME280;13578;53.450;15.496;2023-03-21T05:24:19;99632.41;;;5.85;100.00
25722;BME280;13578;53.450;15.496;2023-03-21T05:27:21;99633.31;;;5.85;100.00
25722;BME280;13578;53.450;15.496;2023-03-21T05:30:34;99630.66;;;5.97;100.00
25722;BME280;13578;53.450;15.496;2023-03-21T05:33:35;99638.72;;;5.98;100.00
25722;BME280;13578;53.450;15.496;2023-03-21T05:36:36;99631.44;;;5.99;100.00
25722;BME280;13578;53.450;15.496;2023-03-21T05:39:37;99642.44;;;5.97;100.00
25722;BME280;13578;53.450;15.496;2023-03-21T05:42:37;99637.53;;;6.02;100.00
25722;BME280;13578;53.450;15.496;2023-03-21T05:45:38;99638.19;;;6.06;100.00
25722;BME280;13578;53.450;15.496;2023-03-21T05:48:39;99646.56;;;6.03;100.00
25722;BME280;13578;53.450;15.496;2023-03-21T05:51:39;99642.78;;;6.06;100.00
25722;BME280;13578;53.450;15.496;2023-03-21T05:54:40;99641.13;;;6.03;100.00
25722;BME280;13578;53.450;15.496;2023-03-21T05:57:41;99643.13;;;6.01;100.00
25722;BME280;13578;53.450;15.496;2023-03-21T06:00:41;99634.34;;;5.96;100.00
25722;BME280;13578;53.450;15.496;2023-03-21T06:03:42;99638.63;;;6.00;100.00
25722;BME280;13578;53.450;15.496;2023-03-21T06:06:43;99641.38;;;6.00;100.00
25722;BME280;13578;53.450;15.496;2023-03-21T06:09:43;99646.00;;;5.98;100.00
25722;BME280;13578;53.450;15.496;2023-03-21T06:12:44;99640.47;;;5.99;100.00
25722;BME280;13578;53.450;15.496;2023-03-21T06:15:45;99642.88;;;6.04;100.00
25722;BME280;13578;53.450;15.496;2023-03-21T06:18:45;99645.84;;;6.01;100.00
25722;BME280;13578;53.450;15.496;2023-03-21T06:21:47;99647.47;;;6.03;100.00
25722;BME280;13578;53.450;15.496;2023-03-21T06:24:48;99653.56;;;6.07;100.00
25722;BME280;13578;53.450;15.496;2023-03-21T06:27:48;99651.81;;;6.06;100.00
25722;BME280;13578;53.450;15.496;2023-03-21T06:30:49;99660.31;;;6.01;100.00
25722;BME280;13578;53.450;15.496;2023-03-21T06:33:50;99667.94;;;6.09;100.00
25722;BME280;13578;53.450;15.496;2023-03-21T06:36:51;99664.97;;;6.12;100.00
25722;BME280;13578;53.450;15.496;2023-03-21T06:39:53;99660.69;;;6.21;100.00
25722;BME280;13578;53.450;15.496;2023-03-21T06:42:54;99661.28;;;6.13;100.00
25722;BME280;13578;53.450;15.496;2023-03-21T06:45:55;99672.69;;;6.18;100.00
25722;BME280;13578;53.450;15.496;2023-03-21T06:48:55;99669.44;;;6.13;100.00
25722;BME280;13578;53.450;15.496;2023-03-21T06:51:56;99664.00;;;6.13;100.00
25722;BME280;13578;53.450;15.496;2023-03-21T06:54:57;99658.50;;;6.26;100.00
25722;BME280;13578;53.450;15.496;2023-03-21T06:57:57;99669.81;;;6.33;100.00
25722;BME280;13578;53.450;15.496;2023-03-21T07:01:00;99676.06;;;6.46;100.00
25722;BME280;13578;53.450;15.496;2023-03-21T07:04:01;99684.72;;;6.40;100.00
25722;BME280;13578;53.450;15.496;2023-03-21T07:07:01;99680.03;;;6.42;100.00
25722;BME280;13578;53.450;15.496;2023-03-21T07:10:03;99680.88;;;6.43;100.00
25722;BME280;13578;53.450;15.496;2023-03-21T07:13:03;99681.34;;;6.36;100.00
25722;BME280;13578;53.450;15.496;2023-03-21T07:16:05;99681.00;;;6.41;100.00
25722;BME280;13578;53.450;15.496;2023-03-21T07:19:05;99686.00;;;6.47;100.00
25722;BME280;13578;53.450;15.496;2023-03-21T07:22:06;99683.44;;;6.57;100.00
25722;BME280;13578;53.450;15.496;2023-03-21T07:25:07;99686.88;;;6.72;100.00
25722;BME280;13578;53.450;15.496;2023-03-21T07:28:08;99685.44;;;6.79;100.00
25722;BME280;13578;53.450;15.496;2023-03-21T07:31:13;99698.38;;;6.89;100.00
25722;BME280;13578;53.450;15.496;2023-03-21T07:34:14;99698.13;;;6.92;100.00
25722;BME280;13578;53.450;15.496;2023-03-21T07:37:16;99703.09;;;6.98;100.00
25722;BME280;13578;53.450;15.496;2023-03-21T07:40:17;99719.25;;;7.01;100.00
25722;BME280;13578;53.450;15.496;2023-03-21T07:43:18;99718.00;;;6.94;100.00
25722;BME280;13578;53.450;15.496;2023-03-21T07:46:19;99719.97;;;6.92;100.00
25722;BME280;13578;53.450;15.496;2023-03-21T07:49:19;99728.13;;;6.92;100.00
25722;BME280;13578;53.450;15.496;2023-03-21T07:52:20;99728.50;;;7.11;100.00
25722;BME280;13578;53.450;15.496;2023-03-21T07:55:20;99737.81;;;7.20;100.00
25722;BME280;13578;53.450;15.496;2023-03-21T07:58:23;99736.13;;;7.30;100.00
25722;BME280;13578;53.450;15.496;2023-03-21T08:01:24;99737.69;;;7.22;100.00
25722;BME280;13578;53.450;15.496;2023-03-21T08:04:25;99744.38;;;7.18;100.00
25722;BME280;13578;53.450;15.496;2023-03-21T08:07:27;99748.94;;;7.06;100.00
25722;BME280;13578;53.450;15.496;2023-03-21T08:10:28;99743.84;;;7.12;100.00
25722;BME280;13578;53.450;15.496;2023-03-21T08:13:29;99737.75;;;7.09;100.00
25722;BME280;13578;53.450;15.496;2023-03-21T08:16:29;99741.03;;;7.14;100.00
25722;BME280;13578;53.450;15.496;2023-03-21T08:19:30;99747.84;;;7.20;100.00
25722;BME280;13578;53.450;15.496;2023-03-21T08:22:31;99745.94;;;7.33;100.00
25722;BME280;13578;53.450;15.496;2023-03-21T08:25:31;99752.88;;;7.37;100.00
25722;BME280;13578;53.450;15.496;2023-03-21T08:28:32;99761.44;;;7.32;100.00
25722;BME280;13578;53.450;15.496;2023-03-21T08:31:33;99767.59;;;7.23;100.00
25722;BME280;13578;53.450;15.496;2023-03-21T08:34:33;99755.81;;;7.23;100.00
25722;BME280;13578;53.450;15.496;2023-03-21T08:37:38;99765.78;;;7.35;100.00
25722;BME280;13578;53.450;15.496;2023-03-21T08:40:40;99764.09;;;7.57;100.00
25722;BME280;13578;53.450;15.496;2023-03-21T08:43:40;99762.19;;;7.82;100.00
25722;BME280;13578;53.450;15.496;2023-03-21T08:46:41;99773.50;;;8.00;100.00
25722;BME280;13578;53.450;15.496;2023-03-21T08:49:42;99776.75;;;8.05;100.00
25722;BME280;13578;53.450;15.496;2023-03-21T08:52:45;99786.91;;;7.91;100.00
25722;BME280;13578;53.450;15.496;2023-03-21T08:55:45;99791.41;;;7.92;100.00
25722;BME280;13578;53.450;15.496;2023-03-21T08:58:46;99782.97;;;8.07;100.00
25722;BME280;13578;53.450;15.496;2023-03-21T09:01:49;99795.91;;;8.27;100.00
25722;BME280;13578;53.450;15.496;2023-03-21T09:04:49;99803.97;;;8.40;100.00
25722;BME280;13578;53.450;15.496;2023-03-21T09:07:54;99803.00;;;8.53;100.00
25722;BME280;13578;53.450;15.496;2023-03-21T09:10:55;99802.13;;;8.64;100.00
25722;BME280;13578;53.450;15.496;2023-03-21T09:13:56;99807.22;;;8.68;100.00
25722;BME280;13578;53.450;15.496;2023-03-21T09:16:56;99808.50;;;8.64;100.00
25722;BME280;13578;53.450;15.496;2023-03-21T09:19:57;99804.00;;;8.52;100.00
25722;BME280;13578;53.450;15.496;2023-03-21T09:22:59;99800.53;;;8.50;100.00
25722;BME280;13578;53.450;15.496;2023-03-21T09:26:00;99810.75;;;8.59;100.00
25722;BME280;13578;53.450;15.496;2023-03-21T09:29:01;99810.38;;;8.52;100.00
25722;BME280;13578;53.450;15.496;2023-03-21T09:32:04;99814.69;;;8.55;100.00
25722;BME280;13578;53.450;15.496;2023-03-21T09:35:06;99816.94;;;8.50;100.00
25722;BME280;13578;53.450;15.496;2023-03-21T09:38:07;99812.97;;;8.65;100.00
25722;BME280;13578;53.450;15.496;2023-03-21T09:47:45;99815.00;;;9.07;100.00
25722;BME280;13578;53.450;15.496;2023-03-21T09:50:51;99814.22;;;9.16;100.00
25722;BME280;13578;53.450;15.496;2023-03-21T09:53:55;99821.81;;;9.13;100.00
25722;BME280;13578;53.450;15.496;2023-03-21T10:00:37;99813.63;;;9.13;100.00
25722;BME280;13578;53.450;15.496;2023-03-21T10:03:39;99805.78;;;9.08;100.00
25722;BME280;13578;53.450;15.496;2023-03-21T10:06:42;99816.22;;;9.14;100.00
25722;BME280;13578;53.450;15.496;2023-03-21T10:09:45;99808.91;;;9.03;100.00
25722;BME280;13578;53.450;15.496;2023-03-21T10:12:49;99818.84;;;9.16;100.00
25722;BME280;13578;53.450;15.496;2023-03-21T10:15:56;99816.88;;;9.39;100.00
25722;BME280;13578;53.450;15.496;2023-03-21T10:19:03;99823.44;;;9.48;100.00
25722;BME280;13578;53.450;15.496;2023-03-21T10:22:09;99820.91;;;9.35;100.00
25722;BME280;13578;53.450;15.496;2023-03-21T10:25:14;99808.84;;;9.26;100.00
25722;BME280;13578;53.450;15.496;2023-03-21T10:28:20;99811.56;;;9.37;100.00
25722;BME280;13578;53.450;15.496;2023-03-21T10:31:23;99817.66;;;9.62;100.00
25722;BME280;13578;53.450;15.496;2023-03-21T10:34:36;99809.72;;;9.59;100.00
25722;BME280;13578;53.450;15.496;2023-03-21T10:37:39;99817.00;;;9.70;100.00
25722;BME280;13578;53.450;15.496;2023-03-21T10:40:40;99814.19;;;9.60;100.00
25722;BME280;13578;53.450;15.496;2023-03-21T10:43:41;99811.66;;;9.68;100.00
25722;BME280;13578;53.450;15.496;2023-03-21T10:47:04;99811.59;;;9.80;100.00
25722;BME280;13578;53.450;15.496;2023-03-21T10:50:10;99800.19;;;9.75;100.00
25722;BME280;13578;53.450;15.496;2023-03-21T10:53:16;99806.13;;;9.80;100.00
25722;BME280;13578;53.450;15.496;2023-03-21T10:56:17;99794.59;;;9.86;100.00
25722;BME280;13578;53.450;15.496;2023-03-21T10:59:24;99811.06;;;9.86;100.00
25722;BME280;13578;53.450;15.496;2023-03-21T11:02:34;99805.44;;;9.66;100.00
25722;BME280;13578;53.450;15.496;2023-03-21T11:05:39;99800.13;;;9.53;100.00
25722;BME280;13578;53.450;15.496;2023-03-21T11:08:49;99789.53;;;9.60;100.00
25722;BME280;13578;53.450;15.496;2023-03-21T11:14:52;99793.88;;;9.63;100.00
25722;BME280;13578;53.450;15.496;2023-03-21T11:17:53;99798.22;;;9.65;100.00
25722;BME280;13578;53.450;15.496;2023-03-21T11:20:56;99807.72;;;9.61;100.00
25722;BME280;13578;53.450;15.496;2023-03-21T11:23:58;99786.72;;;9.72;100.00
25722;BME280;13578;53.450;15.496;2023-03-21T11:26:58;99791.13;;;9.84;100.00
25722;BME280;13578;53.450;15.496;2023-03-21T11:30:03;99793.69;;;9.76;100.00
25722;BME280;13578;53.450;15.496;2023-03-21T11:33:05;99795.47;;;9.65;100.00
25722;BME280;13578;53.450;15.496;2023-03-21T11:36:31;99795.41;;;9.77;100.00
25722;BME280;13578;53.450;15.496;2023-03-21T11:39:36;99798.47;;;9.62;100.00
25722;BME280;13578;53.450;15.496;2023-03-21T11:42:43;99797.00;;;9.58;100.00
25722;BME280;13578;53.450;15.496;2023-03-21T11:46:07;99791.09;;;9.42;100.00
25722;BME280;13578;53.450;15.496;2023-03-21T11:49:09;99790.78;;;9.35;100.00
25722;BME280;13578;53.450;15.496;2023-03-21T11:52:27;99781.56;;;9.36;100.00
25722;BME280;13578;53.450;15.496;2023-03-21T11:55:42;99788.44;;;9.30;100.00
25722;BME280;13578;53.450;15.496;2023-03-21T12:05:52;99768.97;;;9.33;100.00
25722;BME280;13578;53.450;15.496;2023-03-21T12:09:30;99772.09;;;9.61;100.00
25722;BME280;13578;53.450;15.496;2023-03-21T12:16:24;99772.28;;;9.91;100.00
25722;BME280;13578;53.450;15.496;2023-03-21T12:19:45;99760.97;;;10.05;100.00
25722;BME280;13578;53.450;15.496;2023-03-21T12:26:42;99752.75;;;10.36;100.00
25722;BME280;13578;53.450;15.496;2023-03-21T12:33:27;99756.16;;;10.49;100.00
25722;BME280;13578;53.450;15.496;2023-03-21T12:36:39;99745.75;;;10.53;100.00
25722;BME280;13578;53.450;15.496;2023-03-21T12:39:47;99742.44;;;10.49;100.00
25722;BME280;13578;53.450;15.496;2023-03-21T12:49:46;99727.31;;;10.34;100.00
25722;BME280;13578;53.450;15.496;2023-03-21T12:52:53;99717.06;;;10.26;100.00
25722;BME280;13578;53.450;15.496;2023-03-21T12:55:59;99722.97;;;10.31;100.00
25722;BME280;13578;53.450;15.496;2023-03-21T12:59:12;99720.38;;;10.30;100.00
25722;BME280;13578;53.450;15.496;2023-03-21T13:02:19;99717.41;;;10.43;100.00
25722;BME280;13578;53.450;15.496;2023-03-21T13:05:41;99719.25;;;10.32;100.00
25722;BME280;13578;53.450;15.496;2023-03-21T13:08:51;99702.44;;;10.26;100.00
25722;BME280;13578;53.450;15.496;2023-03-21T13:11:56;99705.16;;;10.16;100.00
25722;BME280;13578;53.450;15.496;2023-03-21T13:18:47;99712.66;;;10.14;100.00
25722;BME280;13578;53.450;15.496;2023-03-21T13:22:09;99702.28;;;10.17;100.00
25722;BME280;13578;53.450;15.496;2023-03-21T13:25:19;99703.91;;;10.20;100.00
25722;BME280;13578;53.450;15.496;2023-03-21T13:28:28;99694.59;;;10.11;100.00
25722;BME280;13578;53.450;15.496;2023-03-21T13:31:29;99694.00;;;10.08;100.00
25722;BME280;13578;53.450;15.496;2023-03-21T13:34:32;99689.69;;;10.05;100.00
25722;BME280;13578;53.450;15.496;2023-03-21T13:37:34;99692.97;;;9.99;100.00
25722;BME280;13578;53.450;15.496;2023-03-21T13:40:51;99690.19;;;9.89;100.00
25722;BME280;13578;53.450;15.496;2023-03-21T13:47:05;99684.59;;;10.00;100.00
25722;BME280;13578;53.450;15.496;2023-03-21T13:50:26;99679.84;;;10.02;100.00
25722;BME280;13578;53.450;15.496;2023-03-21T13:53:32;99672.94;;;9.98;100.00
25722;BME280;13578;53.450;15.496;2023-03-21T13:59:45;99665.03;;;9.84;100.00
25722;BME280;13578;53.450;15.496;2023-03-21T14:03:07;99667.88;;;9.73;100.00
25722;BME280;13578;53.450;15.496;2023-03-21T14:06:09;99668.09;;;9.60;100.00
25722;BME280;13578;53.450;15.496;2023-03-21T14:09:21;99654.53;;;9.58;100.00
25722;BME280;13578;53.450;15.496;2023-03-21T14:12:27;99659.44;;;9.54;100.00
25722;BME280;13578;53.450;15.496;2023-03-21T14:15:52;99667.50;;;9.56;100.00
25722;BME280;13578;53.450;15.496;2023-03-21T14:18:59;99667.78;;;9.53;100.00
25722;BME280;13578;53.450;15.496;2023-03-21T14:22:00;99648.97;;;9.38;100.00
25722;BME280;13578;53.450;15.496;2023-03-21T14:25:02;99655.09;;;9.52;100.00
25722;BME280;13578;53.450;15.496;2023-03-21T14:28:11;99659.56;;;9.53;100.00
25722;BME280;13578;53.450;15.496;2023-03-21T14:31:14;99651.06;;;9.56;100.00
25722;BME280;13578;53.450;15.496;2023-03-21T14:34:19;99651.81;;;9.58;100.00
25722;BME280;13578;53.450;15.496;2023-03-21T14:37:32;99645.88;;;9.53;100.00
25722;BME280;13578;53.450;15.496;2023-03-21T14:40:36;99644.97;;;9.52;100.00
25722;BME280;13578;53.450;15.496;2023-03-21T14:43:37;99642.13;;;9.54;100.00
25722;BME280;13578;53.450;15.496;2023-03-21T14:46:38;99640.66;;;9.50;100.00
25722;BME280;13578;53.450;15.496;2023-03-21T14:49:41;99639.66;;;9.51;100.00
25722;BME280;13578;53.450;15.496;2023-03-21T14:52:41;99643.13;;;9.53;100.00
25722;BME280;13578;53.450;15.496;2023-03-21T14:56:08;99627.25;;;9.47;100.00
25722;BME280;13578;53.450;15.496;2023-03-21T14:59:13;99634.72;;;9.45;100.00
25722;BME280;13578;53.450;15.496;2023-03-21T15:02:21;99623.47;;;9.48;100.00
25722;BME280;13578;53.450;15.496;2023-03-21T15:05:30;99606.91;;;9.49;100.00
25722;BME280;13578;53.450;15.496;2023-03-21T15:08:32;99610.09;;;9.54;100.00
25722;BME280;13578;53.450;15.496;2023-03-21T15:11:35;99619.19;;;9.55;100.00
25722;BME280;13578;53.450;15.496;2023-03-21T15:14:36;99610.66;;;9.48;100.00
25722;BME280;13578;53.450;15.496;2023-03-21T15:17:37;99602.59;;;9.47;100.00
25722;BME280;13578;53.450;15.496;2023-03-21T15:20:38;99606.38;;;9.56;100.00
25722;BME280;13578;53.450;15.496;2023-03-21T15:23:44;99601.72;;;9.46;100.00
25722;BME280;13578;53.450;15.496;2023-03-21T15:26:47;99608.31;;;9.44;100.00
25722;BME280;13578;53.450;15.496;2023-03-21T15:29:50;99596.44;;;9.33;100.00
25722;BME280;13578;53.450;15.496;2023-03-21T15:32:56;99594.28;;;9.37;100.00
25722;BME280;13578;53.450;15.496;2023-03-21T15:35:59;99595.63;;;9.43;100.00
25722;BME280;13578;53.450;15.496;2023-03-21T15:39:01;99596.09;;;9.48;100.00
25722;BME280;13578;53.450;15.496;2023-03-21T15:42:27;99588.91;;;9.47;100.00
25722;BME280;13578;53.450;15.496;2023-03-21T15:45:29;99586.16;;;9.47;100.00
25722;BME280;13578;53.450;15.496;2023-03-21T15:48:33;99589.91;;;9.46;100.00
25722;BME280;13578;53.450;15.496;2023-03-21T15:51:34;99582.28;;;9.49;100.00
25722;BME280;13578;53.450;15.496;2023-03-21T15:54:46;99578.34;;;9.42;100.00
25722;BME280;13578;53.450;15.496;2023-03-21T15:57:49;99576.47;;;9.43;100.00
25722;BME280;13578;53.450;15.496;2023-03-21T16:00:54;99581.53;;;9.47;100.00
25722;BME280;13578;53.450;15.496;2023-03-21T16:03:57;99579.88;;;9.35;100.00
25722;BME280;13578;53.450;15.496;2023-03-21T16:07:03;99576.56;;;9.31;100.00
25722;BME280;13578;53.450;15.496;2023-03-21T16:10:37;99576.16;;;9.36;100.00
25722;BME280;13578;53.450;15.496;2023-03-21T16:13:37;99568.44;;;9.30;100.00
25722;BME280;13578;53.450;15.496;2023-03-21T16:16:38;99560.13;;;9.31;100.00
25722;BME280;13578;53.450;15.496;2023-03-21T16:19:39;99556.78;;;9.28;100.00
25722;BME280;13578;53.450;15.496;2023-03-21T16:22:41;99561.13;;;9.30;100.00
25722;BME280;13578;53.450;15.496;2023-03-21T16:25:42;99557.94;;;9.25;100.00
25722;BME280;13578;53.450;15.496;2023-03-21T16:28:44;99561.13;;;9.30;100.00
25722;BME280;13578;53.450;15.496;2023-03-21T16:31:46;99549.44;;;9.28;100.00
25722;BME280;13578;53.450;15.496;2023-03-21T16:34:47;99550.25;;;9.19;100.00
25722;BME280;13578;53.450;15.496;2023-03-21T16:37:48;99554.56;;;9.21;100.00
25722;BME280;13578;53.450;15.496;2023-03-21T16:40:49;99556.19;;;9.24;100.00
25722;BME280;13578;53.450;15.496;2023-03-21T16:43:51;99565.81;;;9.18;100.00
25722;BME280;13578;53.450;15.496;2023-03-21T16:46:52;99561.00;;;9.11;100.00
25722;BME280;13578;53.450;15.496;2023-03-21T16:49:53;99557.06;;;9.03;100.00
25722;BME280;13578;53.450;15.496;2023-03-21T16:52:55;99567.94;;;9.15;100.00
25722;BME280;13578;53.450;15.496;2023-03-21T16:55:56;99561.53;;;9.04;100.00
25722;BME280;13578;53.450;15.496;2023-03-21T16:59:02;99569.28;;;8.99;100.00
25722;BME280;13578;53.450;15.496;2023-03-21T17:02:12;99570.56;;;8.95;100.00
25722;BME280;13578;53.450;15.496;2023-03-21T17:05:13;99557.41;;;8.89;100.00
25722;BME280;13578;53.450;15.496;2023-03-21T17:08:16;99561.28;;;8.86;100.00
25722;BME280;13578;53.450;15.496;2023-03-21T17:11:20;99554.59;;;8.79;100.00
25722;BME280;13578;53.450;15.496;2023-03-21T17:14:20;99558.63;;;8.75;100.00
25722;BME280;13578;53.450;15.496;2023-03-21T17:17:22;99556.03;;;8.73;100.00
25722;BME280;13578;53.450;15.496;2023-03-21T17:20:25;99561.22;;;8.77;100.00
25722;BME280;13578;53.450;15.496;2023-03-21T17:23:28;99555.88;;;8.75;100.00